sensor_id;sensor_type;location;lat;lon;timestamp;P1;durP1;ratioP1;P2;durP2;ratioP2
7213;SDS011;3648;50.614;13.830;2022-11-11T00:01:00;15.43;;;8.33;;
7213;SDS011;3648;50.614;13.830;2022-11-11T00:03:27;11.73;;;8.33;;
7213;SDS011;3648;50.614;13.830;2022-11-11T00:05:58;10.83;;;7.87;;
7213;SDS011;3648;50.614;13.830;2022-11-11T00:08:26;13.67;;;8.33;;
7213;SDS011;3648;50.614;13.830;2022-11-11T00:10:59;10.73;;;7.80;;
7213;SDS011;3648;50.614;13.830;2022-11-11T00:13:27;15.90;;;8.40;;
7213;SDS011;3648;50.614;13.830;2022-11-11T00:15:55;11.23;;;7.67;;
7213;SDS011;3648;50.614;13.830;2022-11-11T00:18:22;11.07;;;7.93;;
7213;SDS011;3648;50.614;13.830;2022-11-11T00:21:07;12.30;;;7.63;;
7213;SDS011;3648;50.614;13.830;2022-11-11T00:23:56;11.67;;;8.37;;
7213;SDS011;3648;50.614;13.830;2022-11-11T00:26:42;9.67;;;6.80;;
7213;SDS011;3648;50.614;13.830;2022-11-11T00:29:10;9.10;;;7.40;;
7213;SDS011;3648;50.614;13.830;2022-11-11T00:31:37;10.73;;;7.73;;
7213;SDS011;3648;50.614;13.830;2022-11-11T00:34:24;12.77;;;7.43;;
7213;SDS011;3648;50.614;13.830;2022-11-11T00:36:51;9.60;;;6.93;;
7213;SDS011;3648;50.614;13.830;2022-11-11T00:39:17;10.23;;;6.73;;
7213;SDS011;3648;50.614;13.830;2022-11-11T00:41:45;8.43;;;6.93;;
7213;SDS011;3648;50.614;13.830;2022-11-11T00:44:12;10.43;;;7.27;;
7213;SDS011;3648;50.614;13.830;2022-11-11T00:46:39;9.23;;;7.43;;
7213;SDS011;3648;50.614;13.830;2022-11-11T00:49:23;13.03;;;7.60;;
7213;SDS011;3648;50.614;13.830;2022-11-11T00:52:07;11.50;;;7.33;;
7213;SDS011;3648;50.614;13.830;2022-11-11T00:54:34;9.30;;;7.33;;
7213;SDS011;3648;50.614;13.830;2022-11-11T00:57:02;10.80;;;7.60;;
7213;SDS011;3648;50.614;13.830;2022-11-11T00:59:29;9.97;;;7.00;;
7213;SDS011;3648;50.614;13.830;2022-11-11T01:01:56;14.20;;;7.57;;
7213;SDS011;3648;50.614;13.830;2022-11-11T01:04:23;13.40;;;8.77;;
7213;SDS011;3648;50.614;13.830;2022-11-11T01:06:50;11.13;;;7.80;;
7213;SDS011;3648;50.614;13.830;2022-11-11T01:09:17;9.00;;;7.37;;
7213;SDS011;3648;50.614;13.830;2022-11-11T01:11:44;11.53;;;7.70;;
7213;SDS011;3648;50.614;13.830;2022-11-11T01:14:12;9.13;;;7.37;;
7213;SDS011;3648;50.614;13.830;2022-11-11T01:16:39;8.83;;;6.87;;
7213;SDS011;3648;50.614;13.830;2022-11-11T01:19:06;9.03;;;7.20;;
7213;SDS011;3648;50.614;13.830;2022-11-11T01:21:33;8.03;;;6.37;;
7213;SDS011;3648;50.614;13.830;2022-11-11T01:24:00;11.20;;;6.70;;
7213;SDS011;3648;50.614;13.830;2022-11-11T01:26:27;9.63;;;7.13;;
7213;SDS011;3648;50.614;13.830;2022-11-11T01:28:54;8.30;;;7.00;;
7213;SDS011;3648;50.614;13.830;2022-11-11T01:31:24;9.43;;;7.50;;
7213;SDS011;3648;50.614;13.830;2022-11-11T01:33:52;7.90;;;6.10;;
7213;SDS011;3648;50.614;13.830;2022-11-11T01:36:19;12.47;;;7.83;;
7213;SDS011;3648;50.614;13.830;2022-11-11T01:38:48;9.77;;;8.40;;
7213;SDS011;3648;50.614;13.830;2022-11-11T01:41:17;10.57;;;7.57;;
7213;SDS011;3648;50.614;13.830;2022-11-11T01:43:59;12.93;;;8.07;;
7213;SDS011;3648;50.614;13.830;2022-11-11T01:46:29;9.23;;;7.97;;
7213;SDS011;3648;50.614;13.830;2022-11-11T01:49:01;9.63;;;7.53;;
7213;SDS011;3648;50.614;13.830;2022-11-11T01:51:52;9.27;;;7.20;;
7213;SDS011;3648;50.614;13.830;2022-11-11T01:54:25;9.53;;;7.80;;
7213;SDS011;3648;50.614;13.830;2022-11-11T01:56:57;10.50;;;7.57;;
7213;SDS011;3648;50.614;13.830;2022-11-11T01:59:29;9.63;;;7.00;;
7213;SDS011;3648;50.614;13.830;2022-11-11T02:01:59;10.13;;;7.93;;
7213;SDS011;3648;50.614;13.830;2022-11-11T02:04:32;9.00;;;7.53;;
7213;SDS011;3648;50.614;13.830;2022-11-11T02:07:19;11.00;;;7.50;;
7213;SDS011;3648;50.614;13.830;2022-11-11T02:09:47;9.43;;;7.00;;
7213;SDS011;3648;50.614;13.830;2022-11-11T02:12:17;9.10;;;7.00;;
7213;SDS011;3648;50.614;13.830;2022-11-11T02:15:02;9.03;;;7.20;;
7213;SDS011;3648;50.614;13.830;2022-11-11T02:17:32;9.07;;;7.17;;
7213;SDS011;3648;50.614;13.830;2022-11-11T02:20:00;13.80;;;8.77;;
7213;SDS011;3648;50.614;13.830;2022-11-11T02:22:30;13.10;;;9.47;;
7213;SDS011;3648;50.614;13.830;2022-11-11T02:25:06;11.60;;;8.80;;
7213;SDS011;3648;50.614;13.830;2022-11-11T02:27:36;11.43;;;8.73;;
7213;SDS011;3648;50.614;13.830;2022-11-11T02:30:06;12.40;;;8.50;;
7213;SDS011;3648;50.614;13.830;2022-11-11T02:32:40;9.87;;;7.90;;
7213;SDS011;3648;50.614;13.830;2022-11-11T02:35:12;10.40;;;8.13;;
7213;SDS011;3648;50.614;13.830;2022-11-11T02:37:40;14.17;;;9.80;;
7213;SDS011;3648;50.614;13.830;2022-11-11T02:40:11;12.63;;;9.10;;
7213;SDS011;3648;50.614;13.830;2022-11-11T02:42:41;15.20;;;8.83;;
7213;SDS011;3648;50.614;13.830;2022-11-11T02:45:08;12.27;;;9.27;;
7213;SDS011;3648;50.614;13.830;2022-11-11T02:47:35;10.57;;;8.80;;
7213;SDS011;3648;50.614;13.830;2022-11-11T02:50:03;11.77;;;9.33;;
7213;SDS011;3648;50.614;13.830;2022-11-11T02:52:30;16.47;;;10.27;;
7213;SDS011;3648;50.614;13.830;2022-11-11T02:54:57;12.30;;;9.73;;
7213;SDS011;3648;50.614;13.830;2022-11-11T02:57:26;12.70;;;9.10;;
7213;SDS011;3648;50.614;13.830;2022-11-11T02:59:53;11.97;;;9.10;;
7213;SDS011;3648;50.614;13.830;2022-11-11T03:02:22;15.07;;;9.67;;
7213;SDS011;3648;50.614;13.830;2022-11-11T03:04:51;11.40;;;8.07;;
7213;SDS011;3648;50.614;13.830;2022-11-11T03:07:18;12.73;;;8.33;;
7213;SDS011;3648;50.614;13.830;2022-11-11T03:09:45;14.20;;;8.40;;
7213;SDS011;3648;50.614;13.830;2022-11-11T03:12:13;12.33;;;8.47;;
7213;SDS011;3648;50.614;13.830;2022-11-11T03:14:41;13.93;;;9.27;;
7213;SDS011;3648;50.614;13.830;2022-11-11T03:17:08;10.57;;;8.33;;
7213;SDS011;3648;50.614;13.830;2022-11-11T03:19:53;12.30;;;8.70;;
7213;SDS011;3648;50.614;13.830;2022-11-11T03:22:40;12.23;;;8.77;;
7213;SDS011;3648;50.614;13.830;2022-11-11T03:25:06;9.30;;;7.90;;
7213;SDS011;3648;50.614;13.830;2022-11-11T03:27:51;11.23;;;7.83;;
7213;SDS011;3648;50.614;13.830;2022-11-11T03:30:20;11.37;;;8.37;;
7213;SDS011;3648;50.614;13.830;2022-11-11T03:32:47;14.57;;;9.77;;
7213;SDS011;3648;50.614;13.830;2022-11-11T03:35:14;12.50;;;9.83;;
7213;SDS011;3648;50.614;13.830;2022-11-11T03:37:41;11.80;;;9.30;;
7213;SDS011;3648;50.614;13.830;2022-11-11T03:40:25;11.67;;;9.73;;
7213;SDS011;3648;50.614;13.830;2022-11-11T03:42:52;12.33;;;10.93;;
7213;SDS011;3648;50.614;13.830;2022-11-11T03:45:20;14.37;;;10.07;;
7213;SDS011;3648;50.614;13.830;2022-11-11T03:47:47;11.37;;;9.03;;
7213;SDS011;3648;50.614;13.830;2022-11-11T03:50:14;13.17;;;9.73;;
7213;SDS011;3648;50.614;13.830;2022-11-11T03:52:41;9.50;;;8.07;;
7213;SDS011;3648;50.614;13.830;2022-11-11T03:55:09;10.90;;;8.57;;
7213;SDS011;3648;50.614;13.830;2022-11-11T03:57:38;10.43;;;9.27;;
7213;SDS011;3648;50.614;13.830;2022-11-11T04:00:07;11.00;;;8.67;;
7213;SDS011;3648;50.614;13.830;2022-11-11T04:02:37;10.80;;;8.70;;
7213;SDS011;3648;50.614;13.830;2022-11-11T04:05:21;10.23;;;8.67;;
7213;SDS011;3648;50.614;13.830;2022-11-11T04:08:08;10.33;;;8.73;;
7213;SDS011;3648;50.614;13.830;2022-11-11T04:10:54;9.40;;;8.37;;
7213;SDS011;3648;50.614;13.830;2022-11-11T04:13:22;9.97;;;8.97;;
7213;SDS011;3648;50.614;13.830;2022-11-11T04:16:06;15.43;;;11.43;;
7213;SDS011;3648;50.614;13.830;2022-11-11T04:18:35;15.57;;;10.27;;
7213;SDS011;3648;50.614;13.830;2022-11-11T04:21:20;16.53;;;9.43;;
7213;SDS011;3648;50.614;13.830;2022-11-11T04:24:05;11.97;;;9.47;;
7213;SDS011;3648;50.614;13.830;2022-11-11T04:26:47;19.07;;;12.13;;
7213;SDS011;3648;50.614;13.830;2022-11-11T04:29:14;20.27;;;12.50;;
7213;SDS011;3648;50.614;13.830;2022-11-11T04:31:57;17.90;;;12.47;;
7213;SDS011;3648;50.614;13.830;2022-11-11T04:34:44;14.97;;;12.13;;
7213;SDS011;3648;50.614;13.830;2022-11-11T04:37:12;17.37;;;12.30;;
7213;SDS011;3648;50.614;13.830;2022-11-11T04:39:39;17.63;;;12.97;;
7213;SDS011;3648;50.614;13.830;2022-11-11T04:42:24;16.13;;;13.27;;
7213;SDS011;3648;50.614;13.830;2022-11-11T04:44:51;17.37;;;12.87;;
7213;SDS011;3648;50.614;13.830;2022-11-11T04:47:36;25.53;;;15.37;;
7213;SDS011;3648;50.614;13.830;2022-11-11T04:50:05;24.73;;;15.57;;
7213;SDS011;3648;50.614;13.830;2022-11-11T04:52:33;20.97;;;14.07;;
7213;SDS011;3648;50.614;13.830;2022-11-11T04:55:00;19.33;;;13.27;;
7213;SDS011;3648;50.614;13.830;2022-11-11T04:57:45;16.10;;;12.57;;
7213;SDS011;3648;50.614;13.830;2022-11-11T05:00:14;16.83;;;13.27;;
7213;SDS011;3648;50.614;13.830;2022-11-11T05:02:42;23.93;;;18.53;;
7213;SDS011;3648;50.614;13.830;2022-11-11T05:05:29;22.47;;;16.67;;
7213;SDS011;3648;50.614;13.830;2022-11-11T05:08:17;27.07;;;14.40;;
7213;SDS011;3648;50.614;13.830;2022-11-11T05:11:02;27.90;;;12.77;;
7213;SDS011;3648;50.614;13.830;2022-11-11T05:13:30;19.57;;;12.00;;
7213;SDS011;3648;50.614;13.830;2022-11-11T05:16:17;17.20;;;11.73;;
7213;SDS011;3648;50.614;13.830;2022-11-11T05:19:05;16.83;;;10.87;;
7213;SDS011;3648;50.614;13.830;2022-11-11T05:21:53;16.70;;;11.80;;
7213;SDS011;3648;50.614;13.830;2022-11-11T05:24:22;63.00;;;21.40;;
7213;SDS011;3648;50.614;13.830;2022-11-11T05:27:07;40.83;;;13.40;;
7213;SDS011;3648;50.614;13.830;2022-11-11T05:29:34;20.83;;;11.50;;
7213;SDS011;3648;50.614;13.830;2022-11-11T05:32:01;16.27;;;10.33;;
7213;SDS011;3648;50.614;13.830;2022-11-11T05:34:29;18.33;;;10.17;;
7213;SDS011;3648;50.614;13.830;2022-11-11T05:36:57;22.70;;;11.03;;
7213;SDS011;3648;50.614;13.830;2022-11-11T05:39:24;23.13;;;10.60;;
7213;SDS011;3648;50.614;13.830;2022-11-11T05:41:51;21.03;;;10.97;;
7213;SDS011;3648;50.614;13.830;2022-11-11T05:44:18;15.97;;;9.90;;
7213;SDS011;3648;50.614;13.830;2022-11-11T05:46:45;22.47;;;10.47;;
7213;SDS011;3648;50.614;13.830;2022-11-11T05:49:12;26.80;;;11.70;;
7213;SDS011;3648;50.614;13.830;2022-11-11T05:51:42;36.00;;;10.33;;
7213;SDS011;3648;50.614;13.830;2022-11-11T05:54:11;24.60;;;20.40;;
7213;SDS011;3648;50.614;13.830;2022-11-11T05:56:39;23.87;;;20.03;;
7213;SDS011;3648;50.614;13.830;2022-11-11T05:59:06;26.03;;;23.10;;
7213;SDS011;3648;50.614;13.830;2022-11-11T06:01:33;21.23;;;16.93;;
7213;SDS011;3648;50.614;13.830;2022-11-11T06:04:01;19.73;;;14.47;;
7213;SDS011;3648;50.614;13.830;2022-11-11T06:06:28;14.53;;;12.60;;
7213;SDS011;3648;50.614;13.830;2022-11-11T06:08:55;16.50;;;11.60;;
7213;SDS011;3648;50.614;13.830;2022-11-11T06:11:23;14.93;;;12.10;;
7213;SDS011;3648;50.614;13.830;2022-11-11T06:13:51;14.13;;;11.90;;
7213;SDS011;3648;50.614;13.830;2022-11-11T06:16:19;17.27;;;12.17;;
7213;SDS011;3648;50.614;13.830;2022-11-11T06:18:46;12.63;;;9.30;;
7213;SDS011;3648;50.614;13.830;2022-11-11T06:21:13;13.23;;;9.93;;
7213;SDS011;3648;50.614;13.830;2022-11-11T06:23:39;13.97;;;9.33;;
7213;SDS011;3648;50.614;13.830;2022-11-11T06:26:08;13.00;;;10.17;;
7213;SDS011;3648;50.614;13.830;2022-11-11T06:28:38;11.43;;;8.40;;
7213;SDS011;3648;50.614;13.830;2022-11-11T06:31:06;15.50;;;8.00;;
7213;SDS011;3648;50.614;13.830;2022-11-11T06:33:33;13.20;;;6.87;;
7213;SDS011;3648;50.614;13.830;2022-11-11T06:36:00;11.20;;;7.70;;
7213;SDS011;3648;50.614;13.830;2022-11-11T06:38:28;13.20;;;7.77;;
7213;SDS011;3648;50.614;13.830;2022-11-11T06:40:55;7.77;;;6.60;;
7213;SDS011;3648;50.614;13.830;2022-11-11T06:43:22;10.73;;;7.37;;
7213;SDS011;3648;50.614;13.830;2022-11-11T06:45:50;13.63;;;6.20;;
7213;SDS011;3648;50.614;13.830;2022-11-11T06:48:18;21.47;;;7.43;;
7213;SDS011;3648;50.614;13.830;2022-11-11T06:50:45;10.67;;;7.00;;
7213;SDS011;3648;50.614;13.830;2022-11-11T06:53:12;13.13;;;6.73;;
7213;SDS011;3648;50.614;13.830;2022-11-11T06:55:41;14.03;;;7.70;;
7213;SDS011;3648;50.614;13.830;2022-11-11T06:58:08;8.47;;;7.33;;
7213;SDS011;3648;50.614;13.830;2022-11-11T07:00:36;10.93;;;7.37;;
7213;SDS011;3648;50.614;13.830;2022-11-11T07:03:06;17.30;;;8.40;;
7213;SDS011;3648;50.614;13.830;2022-11-11T07:05:34;15.37;;;8.07;;
7213;SDS011;3648;50.614;13.830;2022-11-11T07:08:02;22.50;;;9.73;;
7213;SDS011;3648;50.614;13.830;2022-11-11T07:10:30;36.53;;;11.50;;
7213;SDS011;3648;50.614;13.830;2022-11-11T07:12:58;54.60;;;10.80;;
7213;SDS011;3648;50.614;13.830;2022-11-11T07:15:25;12.90;;;10.53;;
7213;SDS011;3648;50.614;13.830;2022-11-11T07:17:52;34.80;;;13.33;;
7213;SDS011;3648;50.614;13.830;2022-11-11T07:20:21;42.73;;;13.43;;
7213;SDS011;3648;50.614;13.830;2022-11-11T07:22:48;35.40;;;9.83;;
7213;SDS011;3648;50.614;13.830;2022-11-11T07:25:15;13.13;;;9.43;;
7213;SDS011;3648;50.614;13.830;2022-11-11T07:27:42;27.37;;;11.87;;
7213;SDS011;3648;50.614;13.830;2022-11-11T07:30:09;18.67;;;13.97;;
7213;SDS011;3648;50.614;13.830;2022-11-11T07:32:42;28.20;;;21.73;;
7213;SDS011;3648;50.614;13.830;2022-11-11T07:35:10;102.50;;;44.70;;
7213;SDS011;3648;50.614;13.830;2022-11-11T07:37:40;146.27;;;65.50;;
7213;SDS011;3648;50.614;13.830;2022-11-11T07:40:08;67.73;;;36.50;;
7213;SDS011;3648;50.614;13.830;2022-11-11T07:42:36;49.57;;;30.30;;
7213;SDS011;3648;50.614;13.830;2022-11-11T07:45:04;41.30;;;27.13;;
7213;SDS011;3648;50.614;13.830;2022-11-11T07:47:33;41.60;;;26.20;;
7213;SDS011;3648;50.614;13.830;2022-11-11T07:50:00;41.67;;;24.83;;
7213;SDS011;3648;50.614;13.830;2022-11-11T07:52:27;40.87;;;26.80;;
7213;SDS011;3648;50.614;13.830;2022-11-11T07:54:55;33.00;;;19.13;;
7213;SDS011;3648;50.614;13.830;2022-11-11T07:57:23;32.90;;;19.90;;
7213;SDS011;3648;50.614;13.830;2022-11-11T07:59:50;30.13;;;18.60;;
7213;SDS011;3648;50.614;13.830;2022-11-11T08:02:17;25.40;;;18.13;;
7213;SDS011;3648;50.614;13.830;2022-11-11T08:04:44;26.07;;;19.67;;
7213;SDS011;3648;50.614;13.830;2022-11-11T08:07:12;25.00;;;17.77;;
7213;SDS011;3648;50.614;13.830;2022-11-11T08:09:39;25.53;;;17.13;;
7213;SDS011;3648;50.614;13.830;2022-11-11T08:12:08;22.53;;;17.27;;
7213;SDS011;3648;50.614;13.830;2022-11-11T08:14:52;20.20;;;14.73;;
7213;SDS011;3648;50.614;13.830;2022-11-11T08:17:19;21.97;;;14.90;;
7213;SDS011;3648;50.614;13.830;2022-11-11T08:19:46;16.73;;;12.83;;
7213;SDS011;3648;50.614;13.830;2022-11-11T08:22:13;20.13;;;11.43;;
7213;SDS011;3648;50.614;13.830;2022-11-11T08:24:40;13.73;;;10.50;;
7213;SDS011;3648;50.614;13.830;2022-11-11T08:27:08;20.63;;;10.20;;
7213;SDS011;3648;50.614;13.830;2022-11-11T08:29:35;13.93;;;9.33;;
7213;SDS011;3648;50.614;13.830;2022-11-11T08:32:02;10.73;;;9.37;;
7213;SDS011;3648;50.614;13.830;2022-11-11T08:34:29;11.90;;;9.03;;
7213;SDS011;3648;50.614;13.830;2022-11-11T08:36:56;13.93;;;9.73;;
7213;SDS011;3648;50.614;13.830;2022-11-11T08:39:23;13.03;;;10.23;;
7213;SDS011;3648;50.614;13.830;2022-11-11T08:41:50;15.50;;;9.53;;
7213;SDS011;3648;50.614;13.830;2022-11-11T08:44:21;11.17;;;8.20;;
7213;SDS011;3648;50.614;13.830;2022-11-11T08:46:49;17.47;;;9.50;;
7213;SDS011;3648;50.614;13.830;2022-11-11T08:49:16;11.77;;;7.93;;
7213;SDS011;3648;50.614;13.830;2022-11-11T08:51:43;10.60;;;8.27;;
7213;SDS011;3648;50.614;13.830;2022-11-11T08:54:10;12.77;;;10.13;;
7213;SDS011;3648;50.614;13.830;2022-11-11T08:56:37;12.00;;;8.47;;
7213;SDS011;3648;50.614;13.830;2022-11-11T08:59:04;10.50;;;8.63;;
7213;SDS011;3648;50.614;13.830;2022-11-11T09:01:34;14.20;;;9.20;;
7213;SDS011;3648;50.614;13.830;2022-11-11T09:04:01;12.17;;;9.63;;
7213;SDS011;3648;50.614;13.830;2022-11-11T09:06:28;11.43;;;9.00;;
7213;SDS011;3648;50.614;13.830;2022-11-11T09:08:55;15.77;;;10.00;;
7213;SDS011;3648;50.614;13.830;2022-11-11T09:11:22;10.50;;;8.17;;
7213;SDS011;3648;50.614;13.830;2022-11-11T09:13:49;13.57;;;10.20;;
7213;SDS011;3648;50.614;13.830;2022-11-11T09:16:16;15.50;;;11.03;;
7213;SDS011;3648;50.614;13.830;2022-11-11T09:18:44;13.60;;;10.43;;
7213;SDS011;3648;50.614;13.830;2022-11-11T09:21:11;15.27;;;11.07;;
7213;SDS011;3648;50.614;13.830;2022-11-11T09:23:38;14.03;;;10.93;;
7213;SDS011;3648;50.614;13.830;2022-11-11T09:26:05;13.67;;;10.43;;
7213;SDS011;3648;50.614;13.830;2022-11-11T09:28:32;14.77;;;10.40;;
7213;SDS011;3648;50.614;13.830;2022-11-11T09:31:00;14.27;;;10.43;;
7213;SDS011;3648;50.614;13.830;2022-11-11T09:33:28;12.77;;;10.87;;
7213;SDS011;3648;50.614;13.830;2022-11-11T09:35:57;12.87;;;10.77;;
7213;SDS011;3648;50.614;13.830;2022-11-11T09:38:25;13.77;;;9.97;;
7213;SDS011;3648;50.614;13.830;2022-11-11T09:40:56;13.33;;;10.80;;
7213;SDS011;3648;50.614;13.830;2022-11-11T09:43:34;17.10;;;12.33;;
7213;SDS011;3648;50.614;13.830;2022-11-11T09:46:20;17.47;;;12.27;;
7213;SDS011;3648;50.614;13.830;2022-11-11T09:51:59;24.40;;;15.27;;
7213;SDS011;3648;50.614;13.830;2022-11-11T09:54:32;22.73;;;15.07;;
7213;SDS011;3648;50.614;13.830;2022-11-11T09:57:07;24.50;;;16.60;;
7213;SDS011;3648;50.614;13.830;2022-11-11T09:59:41;22.67;;;16.27;;
7213;SDS011;3648;50.614;13.830;2022-11-11T10:02:13;24.60;;;15.73;;
7213;SDS011;3648;50.614;13.830;2022-11-11T10:04:51;24.87;;;16.17;;
7213;SDS011;3648;50.614;13.830;2022-11-11T10:07:27;20.97;;;15.80;;
7213;SDS011;3648;50.614;13.830;2022-11-11T10:10:03;21.70;;;15.53;;
7213;SDS011;3648;50.614;13.830;2022-11-11T10:12:38;20.87;;;15.83;;
7213;SDS011;3648;50.614;13.830;2022-11-11T10:15:12;20.40;;;14.73;;
7213;SDS011;3648;50.614;13.830;2022-11-11T10:17:43;18.87;;;14.03;;
7213;SDS011;3648;50.614;13.830;2022-11-11T10:20:19;19.60;;;13.90;;
7213;SDS011;3648;50.614;13.830;2022-11-11T10:22:54;19.03;;;14.17;;
7213;SDS011;3648;50.614;13.830;2022-11-11T10:25:28;20.20;;;14.73;;
7213;SDS011;3648;50.614;13.830;2022-11-11T10:27:57;22.27;;;14.70;;
7213;SDS011;3648;50.614;13.830;2022-11-11T10:30:27;23.53;;;14.53;;
7213;SDS011;3648;50.614;13.830;2022-11-11T10:32:56;27.80;;;15.03;;
7213;SDS011;3648;50.614;13.830;2022-11-11T10:35:26;23.07;;;15.67;;
7213;SDS011;3648;50.614;13.830;2022-11-11T10:38:04;18.23;;;14.13;;
7213;SDS011;3648;50.614;13.830;2022-11-11T10:40:45;22.90;;;15.53;;
7213;SDS011;3648;50.614;13.830;2022-11-11T10:43:18;21.73;;;16.23;;
7213;SDS011;3648;50.614;13.830;2022-11-11T10:45:49;22.47;;;16.53;;
7213;SDS011;3648;50.614;13.830;2022-11-11T10:48:24;21.60;;;15.90;;
7213;SDS011;3648;50.614;13.830;2022-11-11T10:51:00;20.73;;;16.17;;
7213;SDS011;3648;50.614;13.830;2022-11-11T10:53:32;22.53;;;16.53;;
7213;SDS011;3648;50.614;13.830;2022-11-11T10:56:03;21.97;;;16.40;;
7213;SDS011;3648;50.614;13.830;2022-11-11T10:58:36;22.60;;;16.60;;
7213;SDS011;3648;50.614;13.830;2022-11-11T11:01:07;19.27;;;15.43;;
7213;SDS011;3648;50.614;13.830;2022-11-11T11:03:39;16.10;;;14.00;;
7213;SDS011;3648;50.614;13.830;2022-11-11T11:06:10;21.77;;;16.27;;
7213;SDS011;3648;50.614;13.830;2022-11-11T11:08:42;21.10;;;16.03;;
7213;SDS011;3648;50.614;13.830;2022-11-11T11:11:14;19.23;;;15.27;;
7213;SDS011;3648;50.614;13.830;2022-11-11T11:13:45;18.50;;;14.67;;
7213;SDS011;3648;50.614;13.830;2022-11-11T11:16:15;17.93;;;14.10;;
7213;SDS011;3648;50.614;13.830;2022-11-11T11:18:48;21.53;;;16.23;;
7213;SDS011;3648;50.614;13.830;2022-11-11T11:21:49;19.40;;;14.87;;
7213;SDS011;3648;50.614;13.830;2022-11-11T11:24:22;20.90;;;16.23;;
7213;SDS011;3648;50.614;13.830;2022-11-11T11:26:51;20.00;;;14.67;;
7213;SDS011;3648;50.614;13.830;2022-11-11T11:29:23;21.10;;;14.90;;
7213;SDS011;3648;50.614;13.830;2022-11-11T11:31:51;23.40;;;16.33;;
7213;SDS011;3648;50.614;13.830;2022-11-11T11:34:18;23.33;;;16.10;;
7213;SDS011;3648;50.614;13.830;2022-11-11T11:36:57;25.27;;;16.77;;
7213;SDS011;3648;50.614;13.830;2022-11-11T11:39:33;22.70;;;15.93;;
7213;SDS011;3648;50.614;13.830;2022-11-11T11:42:00;18.50;;;15.00;;
7213;SDS011;3648;50.614;13.830;2022-11-11T11:44:28;22.40;;;16.30;;
7213;SDS011;3648;50.614;13.830;2022-11-11T11:46:59;21.83;;;14.50;;
7213;SDS011;3648;50.614;13.830;2022-11-11T11:49:41;24.33;;;15.03;;
7213;SDS011;3648;50.614;13.830;2022-11-11T11:52:31;19.33;;;14.10;;
7213;SDS011;3648;50.614;13.830;2022-11-11T11:55:05;15.83;;;13.80;;
7213;SDS011;3648;50.614;13.830;2022-11-11T11:57:42;18.50;;;14.33;;
7213;SDS011;3648;50.614;13.830;2022-11-11T12:00:17;17.80;;;13.53;;
7213;SDS011;3648;50.614;13.830;2022-11-11T12:05:43;17.77;;;14.27;;
7213;SDS011;3648;50.614;13.830;2022-11-11T12:08:18;18.43;;;15.07;;
7213;SDS011;3648;50.614;13.830;2022-11-11T12:11:00;17.90;;;14.57;;
7213;SDS011;3648;50.614;13.830;2022-11-11T12:13:39;19.77;;;14.47;;
7213;SDS011;3648;50.614;13.830;2022-11-11T12:16:22;18.73;;;14.23;;
7213;SDS011;3648;50.614;13.830;2022-11-11T12:19:01;17.83;;;14.50;;
7213;SDS011;3648;50.614;13.830;2022-11-11T12:21:46;16.77;;;14.07;;
7213;SDS011;3648;50.614;13.830;2022-11-11T12:24:24;16.17;;;14.17;;
7213;SDS011;3648;50.614;13.830;2022-11-11T12:27:05;16.60;;;12.80;;
7213;SDS011;3648;50.614;13.830;2022-11-11T12:29:41;17.80;;;12.97;;
7213;SDS011;3648;50.614;13.830;2022-11-11T12:32:24;18.80;;;14.23;;
7213;SDS011;3648;50.614;13.830;2022-11-11T12:35:14;14.27;;;12.60;;
7213;SDS011;3648;50.614;13.830;2022-11-11T12:37:51;16.40;;;12.93;;
7213;SDS011;3648;50.614;13.830;2022-11-11T12:40:32;19.53;;;14.40;;
7213;SDS011;3648;50.614;13.830;2022-11-11T12:43:09;17.03;;;13.50;;
7213;SDS011;3648;50.614;13.830;2022-11-11T12:45:46;15.47;;;13.17;;
7213;SDS011;3648;50.614;13.830;2022-11-11T12:48:21;17.07;;;13.30;;
7213;SDS011;3648;50.614;13.830;2022-11-11T12:51:06;19.47;;;13.20;;
7213;SDS011;3648;50.614;13.830;2022-11-11T12:53:43;14.53;;;12.80;;
7213;SDS011;3648;50.614;13.830;2022-11-11T12:56:19;15.23;;;13.03;;
7213;SDS011;3648;50.614;13.830;2022-11-11T12:58:56;17.97;;;14.23;;
7213;SDS011;3648;50.614;13.830;2022-11-11T13:01:34;18.33;;;13.00;;
7213;SDS011;3648;50.614;13.830;2022-11-11T13:07:08;17.43;;;13.00;;
7213;SDS011;3648;50.614;13.830;2022-11-11T13:10:07;18.17;;;13.47;;
7213;SDS011;3648;50.614;13.830;2022-11-11T13:12:43;19.60;;;14.23;;
7213;SDS011;3648;50.614;13.830;2022-11-11T13:15:17;19.10;;;13.53;;
7213;SDS011;3648;50.614;13.830;2022-11-11T13:17:47;18.47;;;14.70;;
7213;SDS011;3648;50.614;13.830;2022-11-11T13:20:17;18.70;;;14.13;;
7213;SDS011;3648;50.614;13.830;2022-11-11T13:22:51;18.37;;;14.90;;
7213;SDS011;3648;50.614;13.830;2022-11-11T13:25:20;19.23;;;14.83;;
7213;SDS011;3648;50.614;13.830;2022-11-11T13:27:49;21.73;;;16.60;;
7213;SDS011;3648;50.614;13.830;2022-11-11T13:30:28;20.67;;;15.20;;
7213;SDS011;3648;50.614;13.830;2022-11-11T13:33:11;20.73;;;15.13;;
7213;SDS011;3648;50.614;13.830;2022-11-11T13:35:41;20.67;;;14.73;;
7213;SDS011;3648;50.614;13.830;2022-11-11T13:38:12;22.00;;;15.13;;
7213;SDS011;3648;50.614;13.830;2022-11-11T13:40:51;20.43;;;15.30;;
7213;SDS011;3648;50.614;13.830;2022-11-11T13:43:21;19.90;;;15.03;;
7213;SDS011;3648;50.614;13.830;2022-11-11T13:45:51;20.93;;;15.47;;
7213;SDS011;3648;50.614;13.830;2022-11-11T13:48:21;18.57;;;14.37;;
7213;SDS011;3648;50.614;13.830;2022-11-11T13:50:51;19.70;;;14.13;;
7213;SDS011;3648;50.614;13.830;2022-11-11T13:53:25;18.73;;;14.23;;
7213;SDS011;3648;50.614;13.830;2022-11-11T13:55:59;19.60;;;13.63;;
7213;SDS011;3648;50.614;13.830;2022-11-11T13:58:28;16.73;;;13.70;;
7213;SDS011;3648;50.614;13.830;2022-11-11T14:00:59;19.73;;;13.90;;
7213;SDS011;3648;50.614;13.830;2022-11-11T14:03:35;20.33;;;13.60;;
7213;SDS011;3648;50.614;13.830;2022-11-11T14:12:32;18.87;;;14.00;;
7213;SDS011;3648;50.614;13.830;2022-11-11T14:15:02;18.20;;;13.67;;
7213;SDS011;3648;50.614;13.830;2022-11-11T14:17:33;18.90;;;15.03;;
7213;SDS011;3648;50.614;13.830;2022-11-11T14:20:32;19.17;;;13.67;;
7213;SDS011;3648;50.614;13.830;2022-11-11T14:23:21;18.33;;;13.10;;
7213;SDS011;3648;50.614;13.830;2022-11-11T14:28:49;16.10;;;12.57;;
7213;SDS011;3648;50.614;13.830;2022-11-11T14:34:23;16.77;;;13.10;;
7213;SDS011;3648;50.614;13.830;2022-11-11T14:37:08;16.70;;;12.17;;
7213;SDS011;3648;50.614;13.830;2022-11-11T14:39:48;14.40;;;11.57;;
7213;SDS011;3648;50.614;13.830;2022-11-11T14:54:27;15.57;;;11.80;;
7213;SDS011;3648;50.614;13.830;2022-11-11T14:57:01;16.70;;;11.53;;
7213;SDS011;3648;50.614;13.830;2022-11-11T14:59:33;14.10;;;11.57;;
7213;SDS011;3648;50.614;13.830;2022-11-11T15:02:01;15.20;;;12.07;;
7213;SDS011;3648;50.614;13.830;2022-11-11T15:04:35;20.63;;;12.37;;
7213;SDS011;3648;50.614;13.830;2022-11-11T15:07:05;19.00;;;12.43;;
7213;SDS011;3648;50.614;13.830;2022-11-11T15:10:00;18.33;;;13.17;;
7213;SDS011;3648;50.614;13.830;2022-11-11T15:12:42;17.10;;;12.50;;
7213;SDS011;3648;50.614;13.830;2022-11-11T15:15:20;15.20;;;11.60;;
7213;SDS011;3648;50.614;13.830;2022-11-11T15:17:54;18.53;;;13.60;;
7213;SDS011;3648;50.614;13.830;2022-11-11T15:20:38;19.50;;;12.60;;
7213;SDS011;3648;50.614;13.830;2022-11-11T15:23:20;18.33;;;13.03;;
7213;SDS011;3648;50.614;13.830;2022-11-11T15:25:54;19.53;;;13.83;;
7213;SDS011;3648;50.614;13.830;2022-11-11T15:31:30;16.87;;;11.77;;
7213;SDS011;3648;50.614;13.830;2022-11-11T15:34:05;16.27;;;11.90;;
7213;SDS011;3648;50.614;13.830;2022-11-11T15:36:46;14.50;;;11.90;;
7213;SDS011;3648;50.614;13.830;2022-11-11T15:39:20;17.23;;;13.33;;
7213;SDS011;3648;50.614;13.830;2022-11-11T15:41:51;20.07;;;14.07;;
7213;SDS011;3648;50.614;13.830;2022-11-11T15:44:19;19.97;;;14.10;;
7213;SDS011;3648;50.614;13.830;2022-11-11T15:46:49;18.63;;;13.37;;